createdAt,value
2019-01-14T00:00:32.350Z,96558.35
2019-01-14T00:01:35.159Z,96564.52
2019-01-14T00:02:37.983Z,96557.14
2019-01-14T00:03:40.869Z,96558.39
2019-01-14T00:04:43.611Z,96557.72
2019-01-14T00:05:46.413Z,96545.91
2019-01-14T00:06:49.452Z,96559.78
2019-01-14T00:07:52.239Z,96562.92
2019-01-14T00:08:55.135Z,96565.17
2019-01-14T00:09:57.972Z,96569.90
2019-01-14T00:11:00.706Z,96564.73
2019-01-14T00:12:03.511Z,96568.69
2019-01-14T00:13:06.630Z,96568.69
2019-01-14T00:14:09.547Z,96574.96
2019-01-14T00:15:12.544Z,96576.11
2019-01-14T00:16:15.344Z,96585.75
2019-01-14T00:17:18.109Z,96590.71
2019-01-14T00:18:20.870Z,96596.34
2019-01-14T00:19:24.054Z,96608.16
2019-01-14T00:20:26.774Z,96612.64
2019-01-14T00:21:29.716Z,96612.64
2019-01-14T00:22:34.647Z,96604.26
2019-01-14T00:23:37.487Z,96606.87
2019-01-14T00:24:40.389Z,96617.60
2019-01-14T00:25:44.723Z,96613.84
2019-01-14T00:26:47.607Z,96614.54
2019-01-14T00:27:50.495Z,96613.82
2019-01-14T00:28:53.243Z,96610.02
2019-01-14T00:29:55.949Z,96605.58
2019-01-14T00:30:58.779Z,96603.57
2019-01-14T00:32:02.404Z,96597.61
2019-01-14T00:33:05.182Z,96609.49
2019-01-14T00:34:08.222Z,96604.88
2019-01-14T00:35:11.047Z,96605.12
2019-01-14T00:36:17.697Z,96608.27
2019-01-14T00:37:18.386Z,96608.27
2019-01-14T00:38:21.434Z,96595.84
2019-01-14T00:39:24.344Z,96607.77
2019-01-14T00:40:27.174Z,96607.77
2019-01-14T00:41:29.986Z,96610.52
2019-01-14T00:42:32.973Z,96611.20
2019-01-14T00:43:35.733Z,96608.98
2019-01-14T00:44:41.013Z,96607.39
2019-01-14T00:45:43.837Z,96607.39
2019-01-14T00:46:46.663Z,96607.39
2019-01-14T00:47:49.568Z,96624.16
2019-01-14T00:48:52.575Z,96629.98
2019-01-14T00:49:55.453Z,96620.55
2019-01-14T00:50:59.767Z,96634.03
2019-01-14T00:52:02.680Z,96620.78
2019-01-14T00:53:05.432Z,96620.78
2019-01-14T00:54:08.311Z,96607.25
2019-01-14T00:55:11.117Z,96613.66
2019-01-14T00:56:13.924Z,96599.53
2019-01-14T00:57:16.957Z,96617.61
2019-01-14T00:58:19.784Z,96614.67
2019-01-14T00:59:22.718Z,96614.67
2019-01-14T01:00:25.665Z,96614.18
2019-01-14T01:01:28.533Z,96625.11
2019-01-14T01:02:31.258Z,96602.42
2019-01-14T01:03:34.377Z,96626.46
2019-01-14T01:04:37.213Z,96622.27
2019-01-14T01:05:39.967Z,96607.20
2019-01-14T01:06:42.799Z,96629.48
2019-01-14T01:07:45.584Z,96626.31
2019-01-14T01:08:48.498Z,96629.11
2019-01-14T01:09:51.583Z,96630.27
2019-01-14T01:10:54.905Z,96638.73
2019-01-14T01:11:57.782Z,96644.58
2019-01-14T01:13:01.138Z,96644.58
2019-01-14T01:14:03.890Z,96641.44
2019-01-14T01:15:07.085Z,96641.98
2019-01-14T01:16:10.111Z,96639.14
2019-01-14T01:17:13.012Z,96650.40
2019-01-14T01:18:15.817Z,96650.40
2019-01-14T01:19:18.581Z,96652.32
2019-01-14T01:20:21.714Z,96625.11
2019-01-14T01:21:24.553Z,96642.59
2019-01-14T01:22:27.582Z,96647.42
2019-01-14T01:23:30.341Z,96649.78
2019-01-14T01:24:33.118Z,96651.61
2019-01-14T01:25:36.033Z,96640.05
2019-01-14T01:26:38.839Z,96644.30
2019-01-14T01:27:41.666Z,96656.77
2019-01-14T01:28:44.755Z,96656.77
2019-01-14T01:29:47.486Z,96641.59
2019-01-14T01:30:50.217Z,96648.48
2019-01-14T01:31:53.056Z,96648.48
2019-01-14T01:32:55.805Z,96658.12
2019-01-14T01:33:58.538Z,96663.03
2019-01-14T01:35:01.588Z,96663.03
2019-01-14T01:36:04.399Z,96661.05
2019-01-14T01:37:07.758Z,96661.05
2019-01-14T01:38:10.517Z,96662.87
2019-01-14T01:39:13.850Z,96665.69
2019-01-14T01:40:16.872Z,96670.21
2019-01-14T01:41:19.930Z,96660.39
2019-01-14T01:42:22.753Z,96660.39
2019-01-14T01:43:25.767Z,96681.48
2019-01-14T01:44:28.563Z,96680.86
2019-01-14T01:45:31.854Z,96672.77
2019-01-14T01:46:34.562Z,96686.92
2019-01-14T01:47:37.657Z,96689.88
2019-01-14T01:48:41.012Z,96690.11
2019-01-14T01:49:43.882Z,96695.27
2019-01-14T01:50:46.689Z,96689.97
2019-01-14T01:51:49.472Z,96698.97
2019-01-14T01:52:52.327Z,96699.15
2019-01-14T01:53:55.356Z,96697.95
2019-01-14T01:54:58.173Z,96705.14
2019-01-14T01:56:00.926Z,96705.14
2019-01-14T01:57:03.681Z,96699.30
2019-01-14T01:58:06.802Z,96695.16
2019-01-14T01:59:09.628Z,96695.16
2019-01-14T02:00:12.921Z,96702.53
2019-01-14T02:01:15.653Z,96705.47
2019-01-14T02:02:18.405Z,96708.73
2019-01-14T02:03:21.218Z,96708.73
2019-01-14T02:04:23.938Z,96706.25
2019-01-14T02:05:26.797Z,96707.39
2019-01-14T02:06:29.896Z,96689.89
2019-01-14T02:07:32.788Z,96689.89
2019-01-14T02:08:35.583Z,96691.66
2019-01-14T02:09:38.346Z,96701.00
2019-01-14T02:10:41.103Z,96700.03
2019-01-14T02:11:43.897Z,96707.66
2019-01-14T02:12:47.109Z,96706.63
2019-01-14T02:13:50.471Z,96715.06
2019-01-14T02:14:53.256Z,96709.28
2019-01-14T02:15:56.041Z,96709.28
2019-01-14T02:16:58.956Z,96696.36
2019-01-14T02:18:01.685Z,96710.20
2019-01-14T02:19:04.732Z,96716.41
2019-01-14T02:20:07.468Z,96695.34
2019-01-14T02:21:10.655Z,96714.44
2019-01-14T02:22:13.515Z,96728.25
2019-01-14T02:23:16.426Z,96728.25
2019-01-14T02:24:19.135Z,96724.14
2019-01-14T02:25:22.173Z,96721.55
2019-01-14T02:26:24.935Z,96708.95
2019-01-14T02:27:27.645Z,96737.88
2019-01-14T02:28:31.031Z,96737.88
2019-01-14T02:29:33.839Z,96712.58
2019-01-14T02:30:36.623Z,96735.69
2019-01-14T02:31:39.631Z,96735.69
2019-01-14T02:32:42.400Z,96732.98
2019-01-14T02:33:45.584Z,96732.98
2019-01-14T02:34:48.296Z,96745.99
2019-01-14T02:35:51.508Z,96749.89
2019-01-14T02:36:54.696Z,96744.16
2019-01-14T02:37:58.243Z,96730.77
2019-01-14T02:39:00.968Z,96764.95
2019-01-14T02:40:03.739Z,96754.34
2019-01-14T02:41:06.628Z,96754.34
2019-01-14T02:42:09.384Z,96757.55
2019-01-14T02:43:12.084Z,96764.38
2019-01-14T02:44:15.101Z,96772.67
2019-01-14T02:45:17.923Z,96777.61
2019-01-14T02:46:20.764Z,96768.95
2019-01-14T02:47:23.469Z,96768.95
2019-01-14T02:48:26.278Z,96779.59
2019-01-14T02:49:29.030Z,96782.61
2019-01-14T02:50:32.109Z,96781.92
2019-01-14T02:51:35.296Z,96781.92
2019-01-14T02:52:39.647Z,96788.41
2019-01-14T02:53:42.481Z,96794.05
2019-01-14T02:54:45.252Z,96800.46
2019-01-14T02:55:48.049Z,96799.20
2019-01-14T02:56:52.277Z,96805.85
2019-01-14T02:57:55.106Z,96805.85
2019-01-14T02:58:57.820Z,96796.91
2019-01-14T03:00:01.087Z,96796.91
2019-01-14T03:01:03.854Z,96800.80
2019-01-14T03:02:06.577Z,96806.11
2019-01-14T03:03:09.742Z,96806.11
2019-01-14T03:04:13.035Z,96811.59
2019-01-14T03:05:15.773Z,96798.19
2019-01-14T03:06:18.510Z,96811.09
2019-01-14T03:07:21.311Z,96811.09
2019-01-14T03:08:24.181Z,96813.09
2019-01-14T03:09:27.201Z,96815.79
2019-01-14T03:10:29.948Z,96820.94
2019-01-14T03:11:32.729Z,96816.28
2019-01-14T03:12:35.444Z,96813.58
2019-01-14T03:13:38.712Z,96813.58
2019-01-14T03:14:41.490Z,96820.38
2019-01-14T03:15:44.561Z,96835.27
2019-01-14T03:16:47.493Z,96824.90
2019-01-14T03:17:50.306Z,96827.11
2019-01-14T03:18:53.075Z,96834.24
2019-01-14T03:19:55.808Z,96835.59
2019-01-14T03:20:58.620Z,96842.49
2019-01-14T03:22:01.748Z,96834.98
2019-01-14T03:23:04.643Z,96834.98
2019-01-14T03:24:07.919Z,96838.85
2019-01-14T03:25:10.720Z,96846.05
2019-01-14T03:26:13.550Z,96846.05
2019-01-14T03:27:16.267Z,96852.78
2019-01-14T03:28:19.265Z,96856.29
2019-01-14T03:29:21.981Z,96853.67
2019-01-14T03:30:24.894Z,96853.84
2019-01-14T03:31:27.916Z,96852.48
2019-01-14T03:32:31.192Z,96854.13
2019-01-14T03:33:33.953Z,96856.36
2019-01-14T03:34:36.970Z,96855.55
2019-01-14T03:35:39.779Z,96843.75
2019-01-14T03:36:42.974Z,96846.13
2019-01-14T03:37:45.873Z,96845.75
2019-01-14T03:38:48.769Z,96843.22
2019-01-14T03:39:51.664Z,96844.24
2019-01-14T03:40:56.352Z,96852.48
2019-01-14T03:41:59.109Z,96843.22
2019-01-14T03:43:01.935Z,96843.22
2019-01-14T03:44:04.668Z,96846.94
2019-01-14T03:45:07.451Z,96847.18
2019-01-14T03:46:10.664Z,96847.95
2019-01-14T03:47:13.730Z,96848.20
2019-01-14T03:48:16.468Z,96843.67
2019-01-14T03:49:19.183Z,96844.94
2019-01-14T03:50:21.976Z,96844.94
2019-01-14T03:51:24.774Z,96847.64
2019-01-14T03:52:27.491Z,96848.91
2019-01-14T03:53:31.058Z,96848.74
2019-01-14T03:54:33.783Z,96850.58
2019-01-14T03:55:36.493Z,96862.78
2019-01-14T03:56:39.325Z,96852.78
2019-01-14T03:57:42.103Z,96852.78
2019-01-14T03:58:45.407Z,96856.52
2019-01-14T03:59:48.439Z,96857.14
2019-01-14T04:00:51.166Z,96864.34
2019-01-14T04:01:53.968Z,96862.06
2019-01-14T04:02:57.815Z,96864.03
2019-01-14T04:04:00.533Z,96865.22
2019-01-14T04:05:03.224Z,96865.86
2019-01-14T04:06:06.470Z,96855.41
2019-01-14T04:07:13.511Z,96861.50
2019-01-14T04:08:13.836Z,96861.50
2019-01-14T04:09:16.539Z,96862.77
2019-01-14T04:10:19.340Z,96868.81
2019-01-14T04:11:22.132Z,96871.59
2019-01-14T04:12:25.347Z,96870.70
2019-01-14T04:13:28.285Z,96871.02
2019-01-14T04:14:31.103Z,96871.80
2019-01-14T04:15:34.740Z,96871.80
2019-01-14T04:16:37.536Z,96865.96
2019-01-14T04:17:40.301Z,96865.96
2019-01-14T04:18:43.483Z,96865.80
2019-01-14T04:19:46.444Z,96865.80
2019-01-14T04:20:49.234Z,96864.45
2019-01-14T04:21:51.959Z,96851.84
2019-01-14T04:22:54.784Z,96864.62
2019-01-14T04:23:58.019Z,96868.74
2019-01-14T04:25:01.236Z,96877.04
2019-01-14T04:26:04.047Z,96882.43
2019-01-14T04:27:06.806Z,96878.25
2019-01-14T04:28:09.599Z,96885.69
2019-01-14T04:29:12.300Z,96882.30
2019-01-14T04:30:15.101Z,96890.30
2019-01-14T04:31:18.286Z,96883.00
2019-01-14T04:32:21.074Z,96880.80
2019-01-14T04:33:24.116Z,96883.48
2019-01-14T04:34:26.948Z,96875.41
2019-01-14T04:35:29.801Z,96878.55
2019-01-14T04:36:32.590Z,96879.91
2019-01-14T04:37:35.762Z,96882.27
2019-01-14T04:38:38.674Z,96879.12
2019-01-14T04:39:41.917Z,96884.02
2019-01-14T04:40:44.781Z,96886.55
2019-01-14T04:41:47.542Z,96888.14
2019-01-14T04:42:50.331Z,96893.69
2019-01-14T04:43:54.033Z,96895.03
2019-01-14T04:44:56.928Z,96897.80
2019-01-14T04:45:59.634Z,96893.77
2019-01-14T04:47:02.352Z,96896.22
2019-01-14T04:48:05.068Z,96896.22
2019-01-14T04:49:07.975Z,96892.58
2019-01-14T04:50:11.031Z,96896.53
2019-01-14T04:51:13.757Z,96905.33
2019-01-14T04:52:16.488Z,96910.34
2019-01-14T04:53:19.353Z,96910.34
2019-01-14T04:54:22.061Z,96913.11
2019-01-14T04:55:24.793Z,96913.11
2019-01-14T04:56:27.865Z,96918.89
2019-01-14T04:57:30.672Z,96913.91
2019-01-14T04:58:33.490Z,96915.09
2019-01-14T04:59:36.216Z,96921.73
2019-01-14T05:00:39.037Z,96927.45
2019-01-14T05:01:42.360Z,96927.45
2019-01-14T05:02:45.811Z,96923.97
2019-01-14T05:03:48.627Z,96921.03
2019-01-14T05:04:51.772Z,96921.81
2019-01-14T05:05:55.125Z,96916.98
2019-01-14T05:06:57.939Z,96912.78
2019-01-14T05:08:00.715Z,96912.78
2019-01-14T05:09:05.832Z,96922.16
2019-01-14T05:10:08.645Z,96922.91
2019-01-14T05:11:11.875Z,96919.57
2019-01-14T05:12:14.611Z,96919.38
2019-01-14T05:13:17.389Z,96925.79
2019-01-14T05:14:20.166Z,96919.20
2019-01-14T05:15:23.537Z,96919.20
2019-01-14T05:16:26.323Z,96926.01
2019-01-14T05:17:29.063Z,96932.28
2019-01-14T05:18:31.772Z,96932.28
2019-01-14T05:19:34.977Z,96934.72
2019-01-14T05:20:37.808Z,96934.72
2019-01-14T05:21:40.810Z,96931.25
2019-01-14T05:22:43.653Z,96935.05
2019-01-14T05:23:46.897Z,96930.37
2019-01-14T05:24:50.166Z,96938.02
2019-01-14T05:25:52.945Z,96944.53
2019-01-14T05:26:55.706Z,96943.41
2019-01-14T05:27:58.760Z,96940.18
2019-01-14T05:29:01.532Z,96943.66
2019-01-14T05:30:04.474Z,96939.25
2019-01-14T05:31:07.297Z,96950.88
2019-01-14T05:32:10.129Z,96950.88
2019-01-14T05:33:12.929Z,96945.56
2019-01-14T05:34:16.162Z,96944.44
2019-01-14T05:35:18.907Z,96944.44
2019-01-14T05:36:22.204Z,96949.36
2019-01-14T05:37:24.913Z,96944.64
2019-01-14T05:38:27.676Z,96956.94
2019-01-14T05:39:30.434Z,96955.80
2019-01-14T05:40:33.535Z,96965.97
2019-01-14T05:41:36.387Z,96965.97
2019-01-14T05:42:39.207Z,96956.38
2019-01-14T05:43:42.166Z,96962.54
2019-01-14T05:44:44.908Z,96961.51
2019-01-14T05:45:47.618Z,96961.51
2019-01-14T05:46:50.697Z,96966.96
2019-01-14T05:47:53.428Z,96972.77
2019-01-14T05:48:56.662Z,96967.25
2019-01-14T05:49:59.373Z,96967.25
2019-01-14T05:51:02.076Z,96972.45
2019-01-14T05:52:05.385Z,96979.64
2019-01-14T05:53:08.661Z,96980.11
2019-01-14T05:54:11.528Z,96980.42
2019-01-14T05:55:14.335Z,96980.98
2019-01-14T05:56:17.099Z,96969.90
2019-01-14T05:57:19.907Z,96971.89
2019-01-14T05:58:22.646Z,96979.36
2019-01-14T05:59:26.295Z,96979.36
2019-01-14T06:00:33.298Z,96978.94
2019-01-14T06:01:36.028Z,96984.50
2019-01-14T06:02:38.893Z,96987.84
2019-01-14T06:03:41.631Z,96990.06
2019-01-14T06:04:44.675Z,96990.06
2019-01-14T06:05:47.420Z,96989.19
2019-01-14T06:06:50.725Z,96989.19
2019-01-14T06:07:53.747Z,97005.30
2019-01-14T06:08:56.561Z,97002.54
2019-01-14T06:09:59.851Z,97003.89
2019-01-14T06:11:03.066Z,97004.91
2019-01-14T06:12:05.856Z,97004.91
2019-01-14T06:13:08.820Z,97011.27
2019-01-14T06:14:11.795Z,97014.73
2019-01-14T06:15:14.719Z,97014.73
2019-01-14T06:16:18.535Z,97019.27
2019-01-14T06:17:21.720Z,97028.31
2019-01-14T06:18:25.057Z,97020.30
2019-01-14T06:19:30.398Z,97020.30
2019-01-14T06:20:33.433Z,97025.02
2019-01-14T06:21:36.178Z,97025.02
2019-01-14T06:22:39.024Z,97032.60
2019-01-14T06:23:42.059Z,97038.95
2019-01-14T06:24:44.977Z,97039.79
2019-01-14T06:25:48.293Z,97036.78
2019-01-14T06:26:51.033Z,97034.27
2019-01-14T06:27:54.222Z,97033.52
2019-01-14T06:28:57.086Z,97030.67
2019-01-14T06:30:00.264Z,97030.67
2019-01-14T06:43:43.277Z,97047.80
2019-01-14T06:44:50.688Z,97062.72
2019-01-14T06:45:53.451Z,97062.72
2019-01-14T06:46:56.239Z,97067.91
2019-01-14T06:47:59.138Z,97067.02
2019-01-14T06:49:02.307Z,97074.25
2019-01-14T06:50:05.449Z,97075.60
2019-01-14T06:51:08.195Z,97075.73
2019-01-14T06:52:10.964Z,97075.73
2019-01-14T06:53:13.894Z,97075.02
2019-01-14T06:54:16.716Z,97082.72
2019-01-14T06:55:19.994Z,97084.85
2019-01-14T06:56:22.779Z,97084.85
2019-01-14T06:57:25.482Z,97083.71
2019-01-14T06:58:28.296Z,97088.56
2019-01-14T06:59:31.472Z,97086.77
2019-01-14T07:00:34.300Z,97086.77
2019-01-14T07:01:37.630Z,97090.98
2019-01-14T07:02:40.470Z,97090.48
2019-01-14T07:03:43.281Z,97090.48
2019-01-14T07:04:46.096Z,97096.63
2019-01-14T07:05:48.936Z,97097.72
2019-01-14T07:06:51.733Z,97099.00
2019-01-14T07:07:59.547Z,97096.30
2019-01-14T07:08:59.418Z,97098.50
2019-01-14T07:10:02.146Z,97102.23
2019-01-14T07:11:05.414Z,97102.23
2019-01-14T07:12:09.316Z,97103.58
2019-01-14T07:13:12.058Z,97105.48
2019-01-14T07:14:15.728Z,97105.23
2019-01-14T07:15:18.690Z,112700.31
2019-01-14T07:16:21.675Z,122438.84
2019-01-14T07:17:26.877Z,122438.84
2019-01-14T07:18:29.813Z,127194.17
2019-01-14T07:19:32.593Z,97114.53
2019-01-14T07:20:35.941Z,97114.53
2019-01-14T07:21:38.929Z,97113.03
2019-01-14T07:22:41.798Z,97120.02
2019-01-14T07:23:44.683Z,97117.81
2019-01-14T07:24:47.942Z,97118.02
2019-01-14T07:25:51.172Z,97120.81
2019-01-14T07:26:54.549Z,97129.22
2019-01-14T07:27:57.389Z,97123.30
2019-01-14T07:29:00.267Z,97124.78
2019-01-14T07:30:06.795Z,97129.10
2019-01-14T07:31:09.850Z,97128.64
2019-01-14T07:32:13.081Z,97128.64
2019-01-14T07:33:16.171Z,97129.37
2019-01-14T07:34:18.977Z,97138.42
2019-01-14T07:35:22.180Z,97139.77
2019-01-14T07:36:24.915Z,97138.13
2019-01-14T07:37:27.685Z,97147.56
2019-01-14T07:38:30.418Z,97141.11
2019-01-14T07:39:33.829Z,97144.30
2019-01-14T07:40:36.664Z,97144.30
2019-01-14T07:41:39.388Z,97151.35
2019-01-14T07:42:42.166Z,97154.58
2019-01-14T07:43:45.367Z,97154.58
2019-01-14T07:44:49.056Z,97153.08
2019-01-14T07:45:51.991Z,97159.00
2019-01-14T07:46:54.787Z,97159.00
2019-01-14T07:47:57.712Z,97163.61
2019-01-14T07:49:00.494Z,97163.42
2019-01-14T07:50:03.320Z,97164.20
2019-01-14T07:51:06.417Z,97167.71
2019-01-14T07:52:09.249Z,97166.05
2019-01-14T07:53:12.469Z,97172.00
2019-01-14T07:54:15.260Z,97169.06
2019-01-14T07:55:18.008Z,97179.84
2019-01-14T07:56:21.258Z,97170.22
2019-01-14T07:57:24.590Z,97166.90
2019-01-14T07:58:27.927Z,97166.90
2019-01-14T07:59:30.756Z,97167.46
2019-01-14T08:00:33.493Z,97172.22
2019-01-14T08:01:36.210Z,97176.52
2019-01-14T08:02:39.550Z,97176.52
2019-01-14T08:03:42.364Z,97188.70
2019-01-14T08:04:45.205Z,97187.16
2019-01-14T08:05:48.023Z,97187.16
2019-01-14T08:06:50.871Z,97187.73
2019-01-14T08:07:53.770Z,97193.43
2019-01-14T08:08:56.889Z,97198.00
2019-01-14T08:09:59.660Z,97201.14
2019-01-14T08:11:02.462Z,97197.03
2019-01-14T08:12:05.330Z,97206.77
2019-01-14T08:13:08.211Z,97211.25
2019-01-14T08:14:10.942Z,97217.67
2019-01-14T08:15:14.168Z,97221.14
2019-01-14T08:16:16.895Z,97218.08
2019-01-14T08:17:20.256Z,97217.80
2019-01-14T08:18:23.055Z,97217.80
2019-01-14T08:19:25.848Z,97217.05
2019-01-14T08:20:29.113Z,97224.15
2019-01-14T08:21:32.227Z,97228.00
2019-01-14T08:22:35.163Z,97227.49
2019-01-14T08:23:38.348Z,97233.89
2019-01-14T08:24:41.170Z,97233.89
2019-01-14T08:25:43.879Z,97230.26
2019-01-14T08:26:46.653Z,97230.26
2019-01-14T08:27:49.880Z,97239.14
2019-01-14T08:28:52.679Z,97238.33
2019-01-14T08:29:55.420Z,97238.33
2019-01-14T08:30:58.362Z,97238.64
2019-01-14T08:32:01.325Z,97249.47
2019-01-14T08:33:04.051Z,97248.94
2019-01-14T08:34:10.109Z,97251.79
2019-01-14T08:35:12.869Z,97254.48
2019-01-14T08:36:15.742Z,97252.05
2019-01-14T08:37:18.713Z,97254.48
2019-01-14T08:38:21.575Z,97249.95
2019-01-14T08:39:27.506Z,97252.20
2019-01-14T08:40:30.681Z,97257.27
2019-01-14T08:41:35.729Z,97256.41
2019-01-14T08:42:38.549Z,97260.83
2019-01-14T08:43:45.954Z,97260.83
2019-01-14T08:44:49.029Z,97265.73
2019-01-14T08:45:51.813Z,97265.73
2019-01-14T08:46:54.708Z,97269.58
2019-01-14T08:47:57.462Z,97269.58
2019-01-14T08:49:00.165Z,97273.39
2019-01-14T08:50:03.152Z,97295.55
2019-01-14T08:51:07.917Z,97295.55
2019-01-14T08:52:10.833Z,97288.82
2019-01-14T08:53:13.659Z,97291.62
2019-01-14T08:54:16.478Z,97294.38
2019-01-14T08:55:19.293Z,97294.38
2019-01-14T08:56:22.125Z,97293.72
2019-01-14T08:57:25.309Z,97293.72
2019-01-14T08:58:28.119Z,97299.52
2019-01-14T08:59:30.849Z,97299.06
2019-01-14T09:00:33.787Z,97299.03
2019-01-14T09:01:36.528Z,97293.95
2019-01-14T09:02:39.897Z,97300.32
2019-01-14T09:03:45.604Z,97300.32
2019-01-14T09:04:48.360Z,97306.99
2019-01-14T09:05:51.133Z,97305.47
2019-01-14T09:06:54.459Z,97303.87
2019-01-14T09:07:57.431Z,97306.25
2019-01-14T09:09:00.404Z,97308.69
2019-01-14T09:10:06.496Z,97305.25
2019-01-14T09:11:09.385Z,97311.62
2019-01-14T09:12:12.381Z,97310.11
2019-01-14T09:13:15.176Z,97319.92
2019-01-14T09:14:20.304Z,97319.92
2019-01-14T09:15:23.121Z,97319.05
2019-01-14T09:16:26.266Z,97318.95
2019-01-14T09:17:29.066Z,97321.08
2019-01-14T09:18:31.803Z,97316.78
2019-01-14T09:19:34.674Z,97316.78
2019-01-14T09:20:37.507Z,97327.33
2019-01-14T09:21:42.787Z,97328.88
2019-01-14T09:22:46.001Z,97325.87
2019-01-14T09:23:48.851Z,97319.45
2019-01-14T09:24:52.163Z,97317.96
2019-01-14T09:25:54.912Z,97320.80
2019-01-14T09:26:57.730Z,97320.80
2019-01-14T09:28:00.584Z,97324.05
2019-01-14T09:29:03.741Z,97315.97
2019-01-14T09:30:06.492Z,97325.45
2019-01-14T09:31:09.311Z,97319.45
2019-01-14T09:32:12.094Z,97317.79
2019-01-14T09:33:14.919Z,97312.88
2019-01-14T09:34:20.654Z,97312.88
2019-01-14T09:35:23.956Z,97319.05
2019-01-14T09:36:26.794Z,97323.06
2019-01-14T09:37:29.610Z,97323.06
2019-01-14T09:38:35.862Z,97321.93
2019-01-14T09:39:36.855Z,97326.23
2019-01-14T09:40:39.603Z,97328.14
2019-01-14T09:41:42.798Z,97328.14
2019-01-14T09:42:45.502Z,97330.69
2019-01-14T09:43:48.384Z,97334.67
2019-01-14T09:44:51.670Z,97332.91
2019-01-14T09:45:55.599Z,97332.91
2019-01-14T09:46:58.395Z,97329.49
2019-01-14T09:48:01.127Z,97334.26
2019-01-14T09:49:04.062Z,97326.16
2019-01-14T09:50:06.967Z,97333.67
2019-01-14T09:51:10.317Z,97328.75
2019-01-14T09:52:13.175Z,97328.75
2019-01-14T09:53:15.996Z,97333.99
2019-01-14T09:54:19.194Z,97332.80
2019-01-14T09:55:21.966Z,97333.70
2019-01-14T09:56:24.730Z,97319.58
2019-01-14T09:57:27.518Z,97319.70
2019-01-14T09:58:33.331Z,97326.76
2019-01-14T09:59:36.502Z,122438.84
2019-01-14T10:00:39.946Z,122577.55
2019-01-14T10:01:42.930Z,122438.84
2019-01-14T10:02:46.023Z,122438.84
2019-01-14T10:03:48.744Z,97315.27
2019-01-14T10:04:52.001Z,97344.22
2019-01-14T10:05:55.678Z,97341.09
2019-01-14T10:06:58.431Z,97342.06
2019-01-14T10:08:01.321Z,97351.03
2019-01-14T10:09:05.920Z,122438.84
2019-01-14T10:10:09.204Z,122438.84
2019-01-14T10:11:12.115Z,122438.84
2019-01-14T10:12:15.347Z,97358.80
2019-01-14T10:13:19.312Z,97358.80
2019-01-14T10:14:22.203Z,97365.55
2019-01-14T10:15:28.043Z,97366.80
2019-01-14T10:16:30.952Z,97370.22
2019-01-14T10:17:33.840Z,97368.20
2019-01-14T10:18:37.049Z,97369.19
2019-01-14T10:19:39.981Z,97379.56
2019-01-14T10:20:42.758Z,97380.61
2019-01-14T10:21:46.522Z,97380.61
2019-01-14T10:22:49.300Z,97389.73
2019-01-14T10:23:52.084Z,97394.50
2019-01-14T10:24:55.435Z,97395.37
2019-01-14T10:25:58.248Z,97396.41
2019-01-14T10:27:01.302Z,97399.77
2019-01-14T10:28:04.141Z,97400.50
2019-01-14T10:29:11.614Z,97404.48
2019-01-14T10:30:14.575Z,97398.27
2019-01-14T10:31:19.931Z,97393.73
2019-01-14T10:32:22.163Z,97393.73
2019-01-14T10:33:24.977Z,97396.06
2019-01-14T10:34:28.130Z,97396.06
2019-01-14T10:35:30.967Z,97408.23
2019-01-14T10:36:33.865Z,97401.95
2019-01-14T10:37:37.142Z,97406.39
2019-01-14T10:38:39.950Z,97406.39
2019-01-14T10:39:43.215Z,97403.81
2019-01-14T10:40:46.036Z,97410.55
2019-01-14T10:41:50.014Z,97402.46
2019-01-14T10:42:52.765Z,97403.80
2019-01-14T10:43:55.921Z,97403.80
2019-01-14T10:44:58.947Z,97400.52
2019-01-14T10:46:01.765Z,97398.94
2019-01-14T10:47:06.821Z,97407.53
2019-01-14T10:48:09.576Z,97406.03
2019-01-14T10:49:12.343Z,97410.33
2019-01-14T10:50:17.151Z,97406.60
2019-01-14T10:51:23.512Z,97415.50
2019-01-14T10:52:26.874Z,97416.03
2019-01-14T10:53:31.817Z,97423.53
2019-01-14T10:54:34.582Z,97423.14
2019-01-14T10:55:37.281Z,97426.65
2019-01-14T10:56:44.015Z,97426.11
2019-01-14T10:57:45.653Z,97426.11
2019-01-14T10:58:48.788Z,97427.23
2019-01-14T10:59:51.918Z,97425.57
2019-01-14T11:00:55.624Z,97428.77
2019-01-14T11:01:58.924Z,97425.27
2019-01-14T11:03:04.173Z,97431.66
2019-01-14T11:04:14.657Z,97429.08
2019-01-14T11:05:22.126Z,97428.64
2019-01-14T11:06:31.042Z,97428.64
2019-01-14T11:07:33.805Z,97436.05
2019-01-14T11:08:36.921Z,97436.05
2019-01-14T11:09:44.536Z,97437.12
2019-01-14T11:10:44.534Z,97441.55
2019-01-14T11:11:47.922Z,97443.83
2019-01-14T11:12:50.687Z,97444.55
2019-01-14T11:13:53.550Z,97442.48
2019-01-14T11:15:02.984Z,97453.55
2019-01-14T11:16:04.257Z,97455.26
2019-01-14T11:17:07.155Z,97455.84
2019-01-14T11:18:09.904Z,97454.25
2019-01-14T11:19:17.150Z,97455.28
2019-01-14T11:20:20.062Z,97455.28
2019-01-14T11:21:22.997Z,97456.89
2019-01-14T11:22:25.904Z,97449.25
2019-01-14T11:23:28.686Z,97459.02
2019-01-14T11:24:33.074Z,97459.02
2019-01-14T11:25:36.396Z,97455.91
2019-01-14T11:26:42.346Z,97451.06
2019-01-14T11:27:45.426Z,97454.87
2019-01-14T11:28:48.407Z,97455.83
2019-01-14T11:29:55.047Z,97447.00
2019-01-14T11:42:49.115Z,97466.03
2019-01-14T11:43:51.907Z,97469.31
2019-01-14T11:44:54.733Z,97463.13
2019-01-14T11:45:57.451Z,97466.27
2019-01-14T11:47:00.452Z,97467.98
2019-01-14T11:48:03.773Z,97475.95
2019-01-14T11:49:14.109Z,122438.84
2019-01-14T11:50:17.339Z,97475.95
2019-01-14T11:51:20.828Z,97472.86
2019-01-14T11:52:23.624Z,97477.80
2019-01-14T11:53:26.497Z,97477.80
2019-01-14T11:54:29.690Z,97482.78
2019-01-14T11:55:35.254Z,97483.41
2019-01-14T11:56:41.200Z,122438.84
2019-01-14T11:57:44.540Z,122438.84
2019-01-14T11:58:47.906Z,97479.68
2019-01-14T11:59:50.729Z,97485.17
2019-01-14T12:00:53.914Z,97491.28
2019-01-14T12:01:56.623Z,97494.65
2019-01-14T12:02:59.352Z,97496.05
2019-01-14T12:04:02.225Z,97497.30
2019-01-14T12:05:05.038Z,97490.72
2019-01-14T12:06:08.003Z,97492.80
2019-01-14T12:07:11.218Z,97488.95
2019-01-14T12:08:14.089Z,97491.18
2019-01-14T12:09:16.894Z,97487.52
2019-01-14T12:10:19.844Z,97482.64
2019-01-14T12:11:23.039Z,97488.23
2019-01-14T12:12:25.826Z,97487.58
2019-01-14T12:13:28.644Z,97480.25
2019-01-14T12:14:31.369Z,97480.25
2019-01-14T12:15:34.300Z,97484.30
2019-01-14T12:16:37.149Z,97473.98
2019-01-14T12:17:39.935Z,97486.99
2019-01-14T12:18:43.008Z,97480.59
2019-01-14T12:19:45.816Z,97484.85
2019-01-14T12:20:48.575Z,97484.85
2019-01-14T12:21:51.354Z,97487.60
2019-01-14T12:23:05.687Z,97480.19
2019-01-14T12:24:10.578Z,97490.61
2019-01-14T12:25:13.321Z,97488.02
2019-01-14T12:26:16.164Z,97488.02
2019-01-14T12:27:23.870Z,97487.91
2019-01-14T12:28:26.630Z,97487.91
2019-01-14T12:29:29.360Z,97491.06
2019-01-14T12:30:32.490Z,97484.43
2019-01-14T12:31:35.291Z,97484.43
2019-01-14T12:32:38.117Z,97495.63
2019-01-14T12:33:42.088Z,97501.84
2019-01-14T12:34:45.256Z,97498.56
2019-01-14T12:35:49.123Z,97491.84
2019-01-14T12:36:52.481Z,97493.06
2019-01-14T12:37:55.368Z,97486.45
2019-01-14T12:38:58.182Z,97498.42
2019-01-14T12:40:00.977Z,97494.27
2019-01-14T12:41:03.867Z,97494.82
2019-01-14T12:42:06.669Z,97495.22
2019-01-14T12:43:09.567Z,97495.22
2019-01-14T12:44:12.434Z,97501.45
2019-01-14T12:45:15.183Z,97492.13
2019-01-14T12:46:17.992Z,97504.27